Time;durP1;ratioP1;P1;durP2;ratioP2;P2;SDS_P1;SDS_P2;PMS_P1;PMS_P2;Temp;Humidity;BMP_temperature;BMP_pressure;BME280_temperature;BME280_humidity;BME280_pressure;Samples;Min_cycle;Max_cycle;Signal;HPM_P1;HPM_P2
2023/06/03 00:02:04;;;;;;;10.50;3.53;;;;;;;;;;5073969;28;20525;-70
2023/06/03 00:04:31;;;;;;;3.53;3.17;;;;;;;;;;5073855;28;20439;-70
2023/06/03 00:07:00;;;;;;;5.37;3.70;;;;;;;;;;5073960;28;20448;-70
2023/06/03 00:09:27;;;;;;;5.27;3.97;;;;;;;;;;5073781;28;20449;-71
2023/06/03 00:11:55;;;;;;;7.50;4.07;;;;;;;;;;5073801;28;20485;-71
2023/06/03 00:14:22;;;;;;;8.37;3.90;;;;;;;;;;5073698;28;20441;-71
2023/06/03 00:16:49;;;;;;;8.80;3.17;;;;;;;;;;5073183;28;20474;-71
2023/06/03 00:19:18;;;;;;;6.63;3.70;;;;;;;;;;5073331;28;20460;-71
2023/06/03 00:21:46;;;;;;;5.23;3.50;;;;;;;;;;5073465;28;20461;-71
2023/06/03 00:24:15;;;;;;;4.50;3.63;;;;;;;;;;5073266;28;20944;-70
2023/06/03 00:26:42;;;;;;;5.37;3.13;;;;;;;;;;5073409;28;20435;-71
2023/06/03 00:29:11;;;;;;;4.77;3.00;;;;;;;;;;5073453;28;20449;-71
2023/06/03 00:31:38;;;;;;;7.03;3.70;;;;;;;;;;5073280;28;20478;-71
2023/06/03 00:34:05;;;;;;;4.33;3.77;;;;;;;;;;5073568;28;20543;-71
2023/06/03 00:36:32;;;;;;;4.50;3.30;;;;;;;;;;5073653;28;20442;-71
2023/06/03 00:38:59;;;;;;;4.37;3.97;;;;;;;;;;5072968;28;20934;-71
2023/06/03 00:41:28;;;;;;;7.10;4.10;;;;;;;;;;5073437;28;20474;-70
2023/06/03 00:43:55;;;;;;;4.50;3.60;;;;;;;;;;5072974;28;20557;-70
2023/06/03 00:46:23;;;;;;;3.57;3.27;;;;;;;;;;5072985;28;20443;-71
2023/06/03 00:48:50;;;;;;;3.73;3.30;;;;;;;;;;5072885;28;20452;-70
2023/06/03 00:51:18;;;;;;;9.03;3.30;;;;;;;;;;5073160;28;20536;-70
2023/06/03 00:53:45;;;;;;;7.70;3.70;;;;;;;;;;5072829;28;20447;-71
2023/06/03 00:56:13;;;;;;;4.27;3.37;;;;;;;;;;5073226;28;20436;-71
2023/06/03 00:58:41;;;;;;;3.70;3.10;;;;;;;;;;5073312;28;20512;-71
2023/06/03 01:01:08;;;;;;;3.70;2.80;;;;;;;;;;5074545;28;20455;-71
2023/06/03 01:03:37;;;;;;;3.00;2.50;;;;;;;;;;5077131;28;20532;-71
2023/06/03 01:06:14;;;;;;;4.30;3.10;;;;;;;;;;5077015;28;20443;-71
2023/06/03 01:08:44;;;;;;;4.17;2.60;;;;;;;;;;5076884;28;20427;-71
2023/06/03 01:11:15;;;;;;;3.10;2.80;;;;;;;;;;5077606;28;20554;-71
2023/06/03 01:13:49;;;;;;;3.57;2.80;;;;;;;;;;5076727;28;20429;-71
2023/06/03 01:16:19;;;;;;;6.43;2.90;;;;;;;;;;5077013;28;20489;-71
2023/06/03 01:18:47;;;;;;;3.00;2.70;;;;;;;;;;5077162;28;20498;-71
2023/06/03 01:21:16;;;;;;;4.47;3.10;;;;;;;;;;5077012;28;20438;-71
2023/06/03 01:23:46;;;;;;;8.90;3.07;;;;;;;;;;5076982;28;20452;-71
2023/06/03 01:26:13;;;;;;;4.50;3.00;;;;;;;;;;5077314;28;20443;-71
2023/06/03 01:28:40;;;;;;;5.00;2.63;;;;;;;;;;5076925;28;20438;-71
2023/06/03 01:31:08;;;;;;;5.43;3.13;;;;;;;;;;5076444;28;20473;-71
2023/06/03 01:33:37;;;;;;;4.13;3.00;;;;;;;;;;5076652;28;20440;-71
2023/06/03 01:36:05;;;;;;;4.37;3.20;;;;;;;;;;5076354;28;20445;-71
2023/06/03 01:38:33;;;;;;;4.33;3.20;;;;;;;;;;5076628;28;20783;-71
2023/06/03 01:41:02;;;;;;;3.17;2.90;;;;;;;;;;5076228;28;21006;-71
2023/06/03 01:43:30;;;;;;;4.60;3.10;;;;;;;;;;5076421;28;20437;-71
2023/06/03 01:45:57;;;;;;;4.03;2.90;;;;;;;;;;5076176;28;20817;-71
2023/06/03 01:48:24;;;;;;;5.07;3.07;;;;;;;;;;5076319;28;20431;-71
2023/06/03 01:50:52;;;;;;;3.93;3.03;;;;;;;;;;5076494;28;20473;-71
2023/06/03 01:53:19;;;;;;;3.57;2.90;;;;;;;;;;5075981;28;20441;-71
2023/06/03 01:55:47;;;;;;;3.03;2.73;;;;;;;;;;5076276;28;20442;-71
2023/06/03 01:58:15;;;;;;;4.33;3.30;;;;;;;;;;5076177;28;20540;-71
2023/06/03 02:00:42;;;;;;;3.27;2.97;;;;;;;;;;5076389;28;20945;-71
2023/06/03 02:03:10;;;;;;;4.03;2.93;;;;;;;;;;5076107;28;20472;-71
2023/06/03 02:05:37;;;;;;;3.73;2.83;;;;;;;;;;5076402;28;20444;-71
2023/06/03 02:08:04;;;;;;;4.00;3.23;;;;;;;;;;5076252;28;20444;-71
2023/06/03 02:10:31;;;;;;;4.17;3.77;;;;;;;;;;5076200;28;20436;-71
2023/06/03 02:12:58;;;;;;;6.10;2.63;;;;;;;;;;5075724;28;20446;-71
2023/06/03 02:15:27;;;;;;;5.23;4.73;;;;;;;;;;5075900;28;20480;-70
2023/06/03 02:17:55;;;;;;;4.87;2.93;;;;;;;;;;5075822;28;20442;-72
2023/06/03 02:20:23;;;;;;;6.60;3.37;;;;;;;;;;5076365;28;20863;-73
2023/06/03 02:22:53;;;;;;;3.97;3.23;;;;;;;;;;5075789;28;20447;-71
2023/06/03 02:25:21;;;;;;;3.40;3.10;;;;;;;;;;5075691;28;20950;-71
2023/06/03 02:27:49;;;;;;;8.17;4.13;;;;;;;;;;5075716;28;20552;-71
2023/06/03 02:30:17;;;;;;;3.57;3.23;;;;;;;;;;5075579;28;20452;-72
2023/06/03 02:32:45;;;;;;;5.47;2.73;;;;;;;;;;5075935;28;20476;-72
2023/06/03 02:35:13;;;;;;;3.43;2.83;;;;;;;;;;5075161;28;20438;-71
2023/06/03 02:37:40;;;;;;;13.50;4.47;;;;;;;;;;5075292;28;20923;-72
2023/06/03 02:40:09;;;;;;;4.87;3.27;;;;;;;;;;5075052;28;20935;-72
2023/06/03 02:42:38;;;;;;;8.27;2.60;;;;;;;;;;5075064;28;20464;-71
2023/06/03 02:45:05;;;;;;;5.83;3.53;;;;;;;;;;5075422;28;20449;-72
2023/06/03 02:47:32;;;;;;;4.03;2.77;;;;;;;;;;5075029;28;20935;-72
2023/06/03 02:50:01;;;;;;;5.10;2.90;;;;;;;;;;5075177;28;20440;-72
2023/06/03 02:52:28;;;;;;;4.40;2.50;;;;;;;;;;5075203;28;20476;-72
2023/06/03 02:54:55;;;;;;;5.17;2.60;;;;;;;;;;5074820;28;20456;-71
2023/06/03 02:57:23;;;;;;;4.03;2.80;;;;;;;;;;5075224;28;20451;-72
2023/06/03 02:59:50;;;;;;;3.30;2.73;;;;;;;;;;5074788;28;20499;-72
2023/06/03 03:02:19;;;;;;;5.00;2.50;;;;;;;;;;5075107;28;20453;-71
2023/06/03 03:04:46;;;;;;;4.50;2.60;;;;;;;;;;5075000;28;20923;-72
2023/06/03 03:07:17;;;;;;;2.73;2.53;;;;;;;;;;5074717;28;20445;-72
2023/06/03 03:09:44;;;;;;;4.03;2.30;;;;;;;;;;5074784;28;20425;-72
2023/06/03 03:12:12;;;;;;;4.33;2.57;;;;;;;;;;5074444;28;21040;-72
2023/06/03 03:14:39;;;;;;;5.07;2.40;;;;;;;;;;5074695;28;20467;-72
2023/06/03 03:17:06;;;;;;;3.53;2.70;;;;;;;;;;5074981;28;20480;-72
2023/06/03 03:19:34;;;;;;;3.03;2.40;;;;;;;;;;5074355;28;20481;-72
2023/06/03 03:22:01;;;;;;;4.73;3.07;;;;;;;;;;5074754;28;20440;-72
2023/06/03 03:24:30;;;;;;;5.17;3.07;;;;;;;;;;5073716;28;20452;-72
2023/06/03 03:26:57;;;;;;;6.23;3.03;;;;;;;;;;5074589;28;20535;-72
2023/06/03 03:29:25;;;;;;;9.80;2.87;;;;;;;;;;5074459;28;20432;-71
2023/06/03 03:31:55;;;;;;;6.50;2.47;;;;;;;;;;5074471;28;20476;-71
2023/06/03 03:34:22;;;;;;;3.93;2.50;;;;;;;;;;5074508;28;20441;-71
2023/06/03 03:36:49;;;;;;;6.43;2.70;;;;;;;;;;5074360;28;20441;-72
2023/06/03 03:39:16;;;;;;;3.73;2.50;;;;;;;;;;5074827;28;20448;-71
2023/06/03 03:41:45;;;;;;;3.30;2.10;;;;;;;;;;5074044;28;20806;-71
2023/06/03 03:44:13;;;;;;;2.63;2.40;;;;;;;;;;5072857;28;20444;-72
2023/06/03 03:46:42;;;;;;;3.40;2.40;;;;;;;;;;5073458;28;20970;-72
2023/06/03 03:49:11;;;;;;;5.90;2.23;;;;;;;;;;5073660;28;20495;-72
2023/06/03 03:51:38;;;;;;;5.43;2.90;;;;;;;;;;5073478;28;20472;-72
2023/06/03 03:54:05;;;;;;;4.03;2.50;;;;;;;;;;5073342;28;20448;-72
2023/06/03 03:56:33;;;;;;;2.57;2.03;;;;;;;;;;5073616;28;20468;-71
2023/06/03 03:59:02;;;;;;;3.00;2.30;;;;;;;;;;5073168;28;20968;-71
2023/06/03 04:01:29;;;;;;;2.57;2.10;;;;;;;;;;5074045;28;20541;-71
2023/06/03 04:03:58;;;;;;;2.20;2.00;;;;;;;;;;5073477;28;20619;-71
2023/06/03 04:06:29;;;;;;;4.90;2.40;;;;;;;;;;5073693;28;20799;-71
2023/06/03 04:08:57;;;;;;;2.90;2.33;;;;;;;;;;5074091;28;20840;-71
2023/06/03 04:11:27;;;;;;;4.83;2.00;;;;;;;;;;5073542;28;20880;-71
2023/06/03 04:13:54;;;;;;;4.20;1.90;;;;;;;;;;5073265;28;20591;-71
2023/06/03 04:16:36;;;;;;;6.13;2.00;;;;;;;;;;5073227;28;20478;-71
2023/06/03 04:19:03;;;;;;;3.63;2.13;;;;;;;;;;5073669;28;20431;-71
2023/06/03 04:21:31;;;;;;;4.10;1.90;;;;;;;;;;5073148;28;20450;-71
2023/06/03 04:23:58;;;;;;;9.30;2.23;;;;;;;;;;5073378;28;20470;-70
2023/06/03 04:26:26;;;;;;;4.33;1.90;;;;;;;;;;5073455;28;20452;-71
2023/06/03 04:28:53;;;;;;;3.20;1.90;;;;;;;;;;5073525;28;20544;-71
2023/06/03 04:31:21;;;;;;;3.60;1.80;;;;;;;;;;5073033;28;20464;-71
2023/06/03 04:33:50;;;;;;;2.10;1.83;;;;;;;;;;5073784;28;20450;-71
2023/06/03 04:36:17;;;;;;;2.30;1.60;;;;;;;;;;5072104;28;20459;-71
2023/06/03 04:38:45;;;;;;;4.23;2.10;;;;;;;;;;5073067;28;20441;-72
2023/06/03 04:41:14;;;;;;;2.83;1.70;;;;;;;;;;5073567;28;20440;-72
2023/06/03 04:43:43;;;;;;;2.90;1.70;;;;;;;;;;5072794;28;20450;-72
2023/06/03 04:46:10;;;;;;;2.20;2.00;;;;;;;;;;5073282;28;20458;-72
2023/06/03 04:48:41;;;;;;;2.37;2.03;;;;;;;;;;5073339;28;20442;-72
2023/06/03 04:51:10;;;;;;;5.23;1.90;;;;;;;;;;5073282;28;20436;-72
2023/06/03 04:53:37;;;;;;;2.60;1.90;;;;;;;;;;5073212;28;20797;-72
2023/06/03 04:56:06;;;;;;;2.83;1.87;;;;;;;;;;5073201;28;20777;-72
2023/06/03 04:58:33;;;;;;;2.93;2.10;;;;;;;;;;5073472;28;20755;-72
2023/06/03 05:01:00;;;;;;;2.50;1.97;;;;;;;;;;5073079;28;20455;-72
2023/06/03 05:03:27;;;;;;;2.53;1.80;;;;;;;;;;5072878;28;20490;-72
2023/06/03 05:05:54;;;;;;;2.27;2.07;;;;;;;;;;5072969;28;20442;-72
2023/06/03 05:08:23;;;;;;;5.03;1.80;;;;;;;;;;5073061;28;20438;-72
2023/06/03 05:10:50;;;;;;;2.83;1.83;;;;;;;;;;5073345;28;20454;-72
2023/06/03 05:13:17;;;;;;;1.53;1.43;;;;;;;;;;5072545;28;20570;-72
2023/06/03 05:15:44;;;;;;;3.20;1.70;;;;;;;;;;5072737;28;20479;-72
2023/06/03 05:18:11;;;;;;;4.33;2.00;;;;;;;;;;5072340;28;20468;-72
2023/06/03 05:20:39;;;;;;;3.20;1.67;;;;;;;;;;5072862;28;20456;-72
2023/06/03 05:23:06;;;;;;;1.70;1.60;;;;;;;;;;5072445;28;20540;-72
2023/06/03 05:25:34;;;;;;;1.70;1.50;;;;;;;;;;5072273;28;20963;-71
2023/06/03 05:28:02;;;;;;;2.20;1.53;;;;;;;;;;5072883;28;20438;-71
2023/06/03 05:30:29;;;;;;;8.03;1.90;;;;;;;;;;5073007;28;20441;-71
2023/06/03 05:32:56;;;;;;;1.70;1.40;;;;;;;;;;5072781;28;20482;-72
2023/06/03 05:35:23;;;;;;;4.20;2.10;;;;;;;;;;5073149;28;20524;-72
2023/06/03 05:37:50;;;;;;;1.90;1.73;;;;;;;;;;5072775;28;20439;-72
2023/06/03 05:40:17;;;;;;;4.07;1.97;;;;;;;;;;5072742;28;20442;-72
2023/06/03 05:42:47;;;;;;;2.53;1.73;;;;;;;;;;5072491;28;20464;-73
2023/06/03 05:45:14;;;;;;;1.87;1.63;;;;;;;;;;5072097;28;20460;-71
2023/06/03 05:47:41;;;;;;;1.50;1.37;;;;;;;;;;5074712;28;20464;-72
2023/06/03 05:50:09;;;;;;;3.80;1.87;;;;;;;;;;5076655;28;20445;-71
2023/06/03 05:52:36;;;;;;;1.63;1.50;;;;;;;;;;5075879;28;20552;-71
2023/06/03 05:55:03;;;;;;;3.10;1.93;;;;;;;;;;5077163;28;20943;-71
2023/06/03 05:57:30;;;;;;;2.53;2.33;;;;;;;;;;5076214;28;20808;-71
2023/06/03 05:59:59;;;;;;;3.40;2.17;;;;;;;;;;5076375;28;20544;-71
2023/06/03 06:02:26;;;;;;;1.57;1.40;;;;;;;;;;5076204;28;20451;-71
2023/06/03 06:04:53;;;;;;;3.10;1.73;;;;;;;;;;5075719;28;20448;-71
2023/06/03 06:07:20;;;;;;;2.97;2.00;;;;;;;;;;5075683;28;20443;-71
2023/06/03 06:09:47;;;;;;;3.60;1.63;;;;;;;;;;5075805;28;20443;-71
2023/06/03 06:12:16;;;;;;;3.20;1.80;;;;;;;;;;5075834;28;20500;-71
2023/06/03 06:14:43;;;;;;;4.90;1.90;;;;;;;;;;5075883;28;20460;-71
2023/06/03 06:17:16;;;;;;;2.03;1.70;;;;;;;;;;5075970;28;20473;-71
2023/06/03 06:19:43;;;;;;;7.90;3.50;;;;;;;;;;5075928;28;20453;-71
2023/06/03 06:22:10;;;;;;;9.27;3.13;;;;;;;;;;5076166;28;20442;-71
2023/06/03 06:24:38;;;;;;;2.37;1.80;;;;;;;;;;5074913;28;20499;-71
2023/06/03 06:27:05;;;;;;;2.17;1.97;;;;;;;;;;5075390;28;20920;-71
2023/06/03 06:29:33;;;;;;;3.47;1.70;;;;;;;;;;5075408;28;20451;-71
2023/06/03 06:32:00;;;;;;;1.97;1.80;;;;;;;;;;5075603;28;20446;-71
2023/06/03 06:34:31;;;;;;;2.90;1.63;;;;;;;;;;5075328;28;20497;-70
2023/06/03 06:37:00;;;;;;;3.57;2.07;;;;;;;;;;5075638;28;20838;-71
2023/06/03 06:39:44;;;;;;;1.63;1.53;;;;;;;;;;5075517;28;20446;-71
2023/06/03 06:42:12;;;;;;;17.83;8.80;;;;;;;;;;5075530;28;20453;-79
2023/06/03 06:44:45;;;;;;;6.57;2.77;;;;;;;;;;5074996;28;20498;-69
2023/06/03 06:47:12;;;;;;;2.40;2.10;;;;;;;;;;5075317;28;20436;-67
2023/06/03 06:49:41;;;;;;;1.63;1.53;;;;;;;;;;5074987;28;20965;-68
2023/06/03 06:52:10;;;;;;;2.67;2.00;;;;;;;;;;5074374;28;20454;-69
2023/06/03 06:54:37;;;;;;;2.30;1.40;;;;;;;;;;5074848;28;20451;-69
2023/06/03 06:57:06;;;;;;;2.43;1.70;;;;;;;;;;5074338;28;20435;-77
2023/06/03 06:59:33;;;;;;;4.20;1.63;;;;;;;;;;5073650;28;20447;-71
2023/06/03 07:02:00;;;;;;;2.50;2.13;;;;;;;;;;5074671;28;20446;-68
2023/06/03 07:04:28;;;;;;;4.50;1.80;;;;;;;;;;5074348;28;20443;-69
2023/06/03 07:06:56;;;;;;;5.07;2.27;;;;;;;;;;5074080;28;20443;-69
2023/06/03 07:09:23;;;;;;;3.57;2.00;;;;;;;;;;5075066;28;20803;-68
2023/06/03 07:11:50;;;;;;;6.70;1.60;;;;;;;;;;5074764;28;20447;-69
2023/06/03 07:14:18;;;;;;;1.83;1.57;;;;;;;;;;5074799;28;20482;-69
2023/06/03 07:16:46;;;;;;;4.20;2.47;;;;;;;;;;5074647;28;20477;-68
2023/06/03 07:19:13;;;;;;;2.70;1.90;;;;;;;;;;5074614;28;20444;-68
2023/06/03 07:21:41;;;;;;;6.10;1.40;;;;;;;;;;5074445;28;20448;-69
2023/06/03 07:24:11;;;;;;;4.70;2.90;;;;;;;;;;5073895;28;20452;-69
2023/06/03 07:26:40;;;;;;;2.40;1.90;;;;;;;;;;5074093;28;20432;-69
2023/06/03 07:29:08;;;;;;;4.13;1.90;;;;;;;;;;5074522;28;20444;-68
2023/06/03 07:31:36;;;;;;;2.50;1.60;;;;;;;;;;5074501;28;20800;-69
2023/06/03 07:34:05;;;;;;;4.20;1.57;;;;;;;;;;5074412;28;20484;-68
2023/06/03 07:36:32;;;;;;;4.13;1.70;;;;;;;;;;5074823;28;20439;-69
2023/06/03 07:39:02;;;;;;;2.37;2.27;;;;;;;;;;5073966;28;20951;-68
2023/06/03 07:41:38;;;;;;;4.20;1.80;;;;;;;;;;5074323;28;20434;-70
2023/06/03 07:44:06;;;;;;;3.10;2.00;;;;;;;;;;5073943;28;20447;-69
2023/06/03 07:46:37;;;;;;;2.97;1.87;;;;;;;;;;5073251;28;20452;-70
2023/06/03 07:49:04;;;;;;;1.97;1.80;;;;;;;;;;5074192;28;20539;-68
2023/06/03 07:51:32;;;;;;;3.97;1.40;;;;;;;;;;5074100;28;20804;-69
2023/06/03 07:53:59;;;;;;;3.00;1.60;;;;;;;;;;5074007;28;20836;-70
2023/06/03 07:56:27;;;;;;;3.93;2.63;;;;;;;;;;5073970;28;20476;-68
2023/06/03 07:58:57;;;;;;;5.33;1.70;;;;;;;;;;5073518;28;20448;-68
2023/06/03 08:01:25;;;;;;;4.40;2.17;;;;;;;;;;5074352;28;20919;-70
2023/06/03 08:03:53;;;;;;;4.93;2.27;;;;;;;;;;5073584;28;20446;-69
2023/06/03 08:06:22;;;;;;;3.73;1.87;;;;;;;;;;5073149;28;20456;-68
2023/06/03 08:08:49;;;;;;;3.93;2.10;;;;;;;;;;5073413;28;20533;-68
2023/06/03 08:11:16;;;;;;;2.10;1.90;;;;;;;;;;5073243;28;20448;-68
2023/06/03 08:13:44;;;;;;;1.67;1.50;;;;;;;;;;5073623;28;20953;-70
2023/06/03 08:16:14;;;;;;;1.67;1.47;;;;;;;;;;5074184;28;20482;-69
2023/06/03 08:18:43;;;;;;;3.70;2.27;;;;;;;;;;5073391;28;20447;-68
2023/06/03 08:21:10;;;;;;;3.83;1.70;;;;;;;;;;5073238;28;20462;-68
2023/06/03 08:23:38;;;;;;;1.73;1.63;;;;;;;;;;5072962;28;20462;-68
2023/06/03 08:26:05;;;;;;;3.10;1.70;;;;;;;;;;5072946;28;20446;-68
2023/06/03 08:28:32;;;;;;;5.00;1.97;;;;;;;;;;5073189;28;20452;-68
2023/06/03 08:30:59;;;;;;;2.93;1.90;;;;;;;;;;5073221;28;20444;-68
2023/06/03 08:33:28;;;;;;;3.60;1.60;;;;;;;;;;5073672;28;20494;-68
2023/06/03 08:35:55;;;;;;;1.77;1.53;;;;;;;;;;5073168;28;20944;-68
2023/06/03 08:38:22;;;;;;;4.77;1.47;;;;;;;;;;5072946;28;20902;-68
2023/06/03 08:40:50;;;;;;;7.43;1.57;;;;;;;;;;5073479;28;20443;-70
2023/06/03 08:43:17;;;;;;;4.13;1.80;;;;;;;;;;5073218;28;20447;-70
2023/06/03 08:45:48;;;;;;;1.83;1.50;;;;;;;;;;5072784;28;20451;-72
2023/06/03 08:48:18;;;;;;;4.27;2.00;;;;;;;;;;5072916;28;20435;-70
2023/06/03 08:50:49;;;;;;;5.57;1.60;;;;;;;;;;5072847;28;20449;-72
2023/06/03 08:53:17;;;;;;;2.40;1.70;;;;;;;;;;5073018;28;20481;-70
2023/06/03 08:55:46;;;;;;;3.20;2.27;;;;;;;;;;5073275;28;20440;-70
2023/06/03 08:58:16;;;;;;;2.23;2.03;;;;;;;;;;5073377;28;20530;-71
2023/06/03 09:00:44;;;;;;;3.87;1.80;;;;;;;;;;5073450;28;20447;-70
2023/06/03 09:03:12;;;;;;;5.30;2.30;;;;;;;;;;5072773;28;20449;-69
2023/06/03 09:05:40;;;;;;;5.00;1.97;;;;;;;;;;5072752;28;20436;-69
2023/06/03 09:08:10;;;;;;;2.00;1.47;;;;;;;;;;5073399;28;20501;-69
2023/06/03 09:10:37;;;;;;;2.50;1.97;;;;;;;;;;5073015;28;20435;-69
2023/06/03 09:13:04;;;;;;;10.40;2.13;;;;;;;;;;5072745;28;20487;-69
2023/06/03 09:15:31;;;;;;;2.80;1.80;;;;;;;;;;5072378;28;20527;-69
2023/06/03 09:17:58;;;;;;;1.53;1.37;;;;;;;;;;5073240;28;20807;-68
2023/06/03 09:20:26;;;;;;;3.43;1.87;;;;;;;;;;5073067;28;20432;-69
2023/06/03 09:22:53;;;;;;;3.57;1.73;;;;;;;;;;5075711;28;20444;-69
2023/06/03 09:25:22;;;;;;;5.30;1.73;;;;;;;;;;5076985;28;20446;-68
2023/06/03 09:27:49;;;;;;;3.10;1.50;;;;;;;;;;5076804;28;20443;-69
2023/06/03 09:30:16;;;;;;;3.00;1.80;;;;;;;;;;5076685;28;20446;-69
2023/06/03 09:32:43;;;;;;;2.80;1.30;;;;;;;;;;5076609;28;20444;-69
2023/06/03 09:35:11;;;;;;;2.77;1.73;;;;;;;;;;5076341;28;20444;-70
2023/06/03 09:37:38;;;;;;;6.00;1.90;;;;;;;;;;5076340;28;20451;-69
2023/06/03 09:40:09;;;;;;;5.77;2.00;;;;;;;;;;5076502;28;20466;-68
2023/06/03 09:42:43;;;;;;;2.50;1.70;;;;;;;;;;5076198;28;20482;-69
2023/06/03 09:45:23;;;;;;;3.43;1.67;;;;;;;;;;5076040;28;20448;-69
2023/06/03 09:47:50;;;;;;;2.20;1.63;;;;;;;;;;5076273;28;20956;-69
2023/06/03 09:50:18;;;;;;;3.03;1.57;;;;;;;;;;5076368;28;20433;-69
2023/06/03 09:52:45;;;;;;;7.40;1.50;;;;;;;;;;5076476;28;20459;-69
2023/06/03 09:55:12;;;;;;;1.50;1.40;;;;;;;;;;5076306;28;20856;-69
2023/06/03 09:57:40;;;;;;;1.97;1.67;;;;;;;;;;5076336;28;20480;-69
2023/06/03 10:00:12;;;;;;;3.30;1.23;;;;;;;;;;5076388;28;20800;-69
2023/06/03 10:02:43;;;;;;;1.87;1.70;;;;;;;;;;5076778;28;20439;-69
2023/06/03 10:05:26;;;;;;;5.83;1.60;;;;;;;;;;5074833;28;20436;-69
2023/06/03 10:07:53;;;;;;;3.87;1.53;;;;;;;;;;5076552;28;20432;-68
2023/06/03 10:10:21;;;;;;;2.37;1.60;;;;;;;;;;5075950;28;20490;-68
2023/06/03 10:12:48;;;;;;;2.70;1.70;;;;;;;;;;5075829;28;20956;-68
2023/06/03 10:15:17;;;;;;;3.77;1.70;;;;;;;;;;5075502;28;20491;-70
2023/06/03 10:17:48;;;;;;;3.77;2.23;;;;;;;;;;5076370;28;20440;-68
2023/06/03 10:20:31;;;;;;;4.20;2.90;;;;;;;;;;5076140;28;20779;-67
2023/06/03 10:22:58;;;;;;;5.30;1.83;;;;;;;;;;5075560;28;20464;-68
2023/06/03 10:25:26;;;;;;;2.50;2.30;;;;;;;;;;5075313;28;20765;-68
2023/06/03 10:27:53;;;;;;;1.60;1.30;;;;;;;;;;5075448;28;20451;-67
2023/06/03 10:30:23;;;;;;;1.80;1.43;;;;;;;;;;5075317;28;20451;-68
2023/06/03 10:32:51;;;;;;;1.40;1.30;;;;;;;;;;5074626;28;20437;-69
2023/06/03 10:35:19;;;;;;;2.20;1.67;;;;;;;;;;5074783;28;20794;-70
2023/06/03 10:37:47;;;;;;;1.60;1.50;;;;;;;;;;5075854;28;20834;-69
2023/06/03 10:40:15;;;;;;;1.73;1.50;;;;;;;;;;5075211;28;20931;-68
2023/06/03 10:42:42;;;;;;;1.70;1.60;;;;;;;;;;5075664;28;20439;-68
2023/06/03 10:45:10;;;;;;;2.90;1.57;;;;;;;;;;5075034;28;20484;-68
2023/06/03 10:47:39;;;;;;;1.63;1.53;;;;;;;;;;5075152;28;20456;-67
2023/06/03 10:50:13;;;;;;;1.73;1.20;;;;;;;;;;5075015;28;20445;-68
2023/06/03 10:52:48;;;;;;;1.47;1.20;;;;;;;;;;5075474;28;20437;-67
2023/06/03 10:55:25;;;;;;;3.10;1.70;;;;;;;;;;5074879;28;20506;-68
2023/06/03 10:57:56;;;;;;;2.20;1.40;;;;;;;;;;5074926;28;20450;-68
2023/06/03 11:00:41;;;;;;;5.10;2.07;;;;;;;;;;5075703;28;20777;-68
2023/06/03 11:03:09;;;;;;;2.63;1.50;;;;;;;;;;5075250;28;20941;-68
2023/06/03 11:05:37;;;;;;;2.40;1.40;;;;;;;;;;5074529;28;20521;-68
2023/06/03 11:08:05;;;;;;;5.90;1.70;;;;;;;;;;5074920;28;20801;-68
2023/06/03 11:10:41;;;;;;;2.40;1.40;;;;;;;;;;5074594;28;20452;-68
2023/06/03 11:13:10;;;;;;;1.33;1.20;;;;;;;;;;5074934;28;20438;-68
2023/06/03 11:15:56;;;;;;;2.57;1.30;;;;;;;;;;5074779;28;20912;-68
2023/06/03 11:18:23;;;;;;;2.33;2.13;;;;;;;;;;5074727;28;20445;-69
2023/06/03 11:20:52;;;;;;;2.53;2.20;;;;;;;;;;5074645;28;20445;-68
2023/06/03 11:23:34;;;;;;;3.63;2.07;;;;;;;;;;5074304;28;20948;-68
2023/06/03 11:26:25;;;;;;;2.67;1.67;;;;;;;;;;5073694;28;20456;-68
2023/06/03 11:28:52;;;;;;;4.77;1.60;;;;;;;;;;5074023;28;20444;-68
2023/06/03 11:31:20;;;;;;;4.30;1.50;;;;;;;;;;5074437;28;20441;-68
2023/06/03 11:34:02;;;;;;;1.80;1.70;;;;;;;;;;5073984;28;20480;-68
2023/06/03 11:36:57;;;;;;;5.53;3.70;;;;;;;;;;5073883;28;20956;-68
2023/06/03 11:39:25;;;;;;;4.03;2.13;;;;;;;;;;5074094;28;20429;-69
2023/06/03 11:42:16;;;;;;;10.97;2.40;;;;;;;;;;5074132;28;20454;-68
2023/06/03 11:44:43;;;;;;;2.17;1.97;;;;;;;;;;5073227;28;20527;-69
2023/06/03 11:47:11;;;;;;;7.43;1.87;;;;;;;;;;5074006;28;20442;-68
2023/06/03 11:49:39;;;;;;;5.13;2.03;;;;;;;;;;5073873;28;20934;-68
2023/06/03 11:52:07;;;;;;;2.50;2.30;;;;;;;;;;5074242;28;20535;-68
2023/06/03 11:54:36;;;;;;;3.23;2.23;;;;;;;;;;5073918;28;20473;-69
2023/06/03 11:57:03;;;;;;;1.67;1.57;;;;;;;;;;5073572;28;20452;-68
2023/06/03 11:59:35;;;;;;;4.37;1.73;;;;;;;;;;5074081;28;20451;-68
2023/06/03 12:02:03;;;;;;;2.23;1.87;;;;;;;;;;5073853;28;20552;-68
2023/06/03 12:04:31;;;;;;;1.90;1.70;;;;;;;;;;5073834;28;20439;-68
2023/06/03 12:06:59;;;;;;;6.70;2.10;;;;;;;;;;5073412;28;20441;-68
2023/06/03 12:09:27;;;;;;;4.50;1.67;;;;;;;;;;5073469;28;20452;-68
2023/06/03 12:11:56;;;;;;;2.57;2.07;;;;;;;;;;5073748;28;20498;-68
2023/06/03 12:14:27;;;;;;;1.80;1.43;;;;;;;;;;5073587;28;20814;-68
2023/06/03 12:16:54;;;;;;;4.90;1.60;;;;;;;;;;5073553;28;20497;-68
2023/06/03 12:19:22;;;;;;;2.80;1.70;;;;;;;;;;5073348;28;20458;-68
2023/06/03 12:21:56;;;;;;;4.60;2.23;;;;;;;;;;5073195;28;20933;-68
2023/06/03 12:24:28;;;;;;;1.63;1.53;;;;;;;;;;5074415;28;20436;-68
2023/06/03 12:26:56;;;;;;;1.93;1.37;;;;;;;;;;5073824;28;20486;-68
2023/06/03 12:29:24;;;;;;;2.50;2.30;;;;;;;;;;5073442;28;20437;-68
2023/06/03 12:32:01;;;;;;;3.40;2.90;;;;;;;;;;5073378;28;20470;-68
2023/06/03 12:34:33;;;;;;;5.63;3.40;;;;;;;;;;5073423;28;20481;-68
2023/06/03 12:37:00;;;;;;;14.03;10.03;;;;;;;;;;5073005;28;20473;-68
2023/06/03 12:39:40;;;;;;;15.90;8.03;;;;;;;;;;5073332;28;20441;-69
2023/06/03 12:42:09;;;;;;;3.37;1.70;;;;;;;;;;5073516;28;20429;-68
2023/06/03 12:44:43;;;;;;;1.80;1.70;;;;;;;;;;5073088;28;20441;-68
2023/06/03 12:47:11;;;;;;;2.17;1.50;;;;;;;;;;5073250;28;20495;-68
2023/06/03 12:49:38;;;;;;;4.47;1.50;;;;;;;;;;5073041;28;20507;-68
2023/06/03 12:52:16;;;;;;;1.67;1.50;;;;;;;;;;5073655;28;20823;-68
2023/06/03 12:54:44;;;;;;;2.10;1.90;;;;;;;;;;5073051;28;20483;-68
2023/06/03 12:57:13;;;;;;;2.53;2.30;;;;;;;;;;5072264;28;20523;-68
2023/06/03 12:59:58;;;;;;;2.37;1.53;;;;;;;;;;5073708;28;20524;-67
2023/06/03 13:02:25;;;;;;;3.33;1.67;;;;;;;;;;5073360;28;20442;-68
2023/06/03 13:04:52;;;;;;;2.70;1.60;;;;;;;;;;5073157;28;20475;-68
2023/06/03 13:07:19;;;;;;;1.60;1.50;;;;;;;;;;5073061;28;20444;-68
2023/06/03 13:09:46;;;;;;;2.07;1.73;;;;;;;;;;5072660;28;20440;-68
2023/06/03 13:12:15;;;;;;;3.40;1.70;;;;;;;;;;5072918;28;20755;-68
2023/06/03 13:14:43;;;;;;;2.67;1.40;;;;;;;;;;5072596;28;20534;-68
2023/06/03 13:17:11;;;;;;;3.73;1.80;;;;;;;;;;5073035;28;20498;-68
2023/06/03 13:19:39;;;;;;;3.03;1.67;;;;;;;;;;5072586;28;20505;-67
2023/06/03 13:22:07;;;;;;;1.80;1.70;;;;;;;;;;5072864;28;20440;-67
2023/06/03 13:24:34;;;;;;;6.70;1.90;;;;;;;;;;5072989;28;20451;-67
2023/06/03 13:27:02;;;;;;;13.03;8.43;;;;;;;;;;5072457;28;20548;-66
2023/06/03 13:29:31;;;;;;;2.13;2.00;;;;;;;;;;5072213;28;20957;-67
2023/06/03 13:31:58;;;;;;;3.67;1.80;;;;;;;;;;5071709;28;20433;-69
2023/06/03 13:34:25;;;;;;;1.60;1.50;;;;;;;;;;5072213;28;20480;-67
2023/06/03 13:36:53;;;;;;;1.90;1.40;;;;;;;;;;5072255;28;20457;-67
2023/06/03 13:39:22;;;;;;;4.90;2.30;;;;;;;;;;5072258;28;20923;-68
2023/06/03 13:41:49;;;;;;;1.93;1.73;;;;;;;;;;5073252;28;20453;-68
2023/06/03 13:44:16;;;;;;;3.70;2.70;;;;;;;;;;5072305;28;20445;-68
2023/06/03 13:46:45;;;;;;;2.10;1.40;;;;;;;;;;5072620;28;20447;-67
2023/06/03 13:49:12;;;;;;;2.53;1.30;;;;;;;;;;5072688;28;20492;-67
2023/06/03 13:51:39;;;;;;;8.57;1.47;;;;;;;;;;5072779;28;20441;-67
2023/06/03 13:54:06;;;;;;;2.43;2.00;;;;;;;;;;5072149;28;20433;-67
2023/06/03 13:56:34;;;;;;;4.00;2.63;;;;;;;;;;5072510;28;20590;-68
2023/06/03 13:59:02;;;;;;;4.13;1.50;;;;;;;;;;5072225;28;20480;-67
2023/06/03 14:01:30;;;;;;;4.20;1.60;;;;;;;;;;5072455;28;20451;-67
2023/06/03 14:03:58;;;;;;;8.93;4.50;;;;;;;;;;5072127;28;20441;-68
2023/06/03 14:06:25;;;;;;;6.07;2.20;;;;;;;;;;5073327;28;20453;-68
2023/06/03 14:08:53;;;;;;;5.07;2.23;;;;;;;;;;5074900;28;20504;-67
2023/06/03 14:11:25;;;;;;;4.20;3.27;;;;;;;;;;5076614;28;20451;-66
2023/06/03 14:13:52;;;;;;;8.33;5.00;;;;;;;;;;5076042;28;20507;-66
2023/06/03 14:16:22;;;;;;;5.17;2.13;;;;;;;;;;5075918;28;20538;-67
2023/06/03 14:18:49;;;;;;;2.27;1.93;;;;;;;;;;5075956;28;20781;-67
2023/06/03 14:21:17;;;;;;;1.80;1.70;;;;;;;;;;5075641;28;20483;-66
2023/06/03 14:23:45;;;;;;;5.73;1.87;;;;;;;;;;5075818;28;20443;-67
2023/06/03 14:26:18;;;;;;;6.60;2.47;;;;;;;;;;5075464;28;20448;-67
2023/06/03 14:28:46;;;;;;;2.73;1.67;;;;;;;;;;5075933;28;20460;-67
2023/06/03 14:31:15;;;;;;;1.73;1.40;;;;;;;;;;5075636;28;20499;-67
2023/06/03 14:33:42;;;;;;;3.50;1.60;;;;;;;;;;5075483;28;20966;-67
2023/06/03 14:36:09;;;;;;;2.00;1.57;;;;;;;;;;5075187;28;20474;-67
2023/06/03 14:38:38;;;;;;;2.10;1.90;;;;;;;;;;5074793;28;20462;-68
2023/06/03 14:41:07;;;;;;;2.13;1.50;;;;;;;;;;5075751;28;20439;-68
2023/06/03 14:43:34;;;;;;;2.87;1.90;;;;;;;;;;5075288;28;20447;-68
2023/06/03 14:46:02;;;;;;;1.60;1.37;;;;;;;;;;5075840;28;20807;-66
2023/06/03 14:48:29;;;;;;;2.50;1.73;;;;;;;;;;5075040;28;20442;-67
2023/06/03 14:50:56;;;;;;;2.70;1.60;;;;;;;;;;5075035;28;20965;-67
2023/06/03 14:53:23;;;;;;;4.90;2.70;;;;;;;;;;5075122;28;20446;-67